Thurston, United Kingdom
Current Conditions -  °F | °C
As of 1:05 PM on Tuesday 21 Oct 2014 (Local Time) from EGUW Reporting Station
Broken Clouds Broken Clouds  
Wind Chill: 50°   Ceiling: 3000
Heat Index: 50°   Visibility: 6mi
Dew Point: 45°   Wind: 22mph
Humidity: 82%   Direction: 300°WNW
Pressure: 29.59"   Gusts: 36mph
Location:  52.25°N, 0.81°E
Report Text: EGUW 211205Z 30019G31KT 9999 BKN030 10/07 Q1002 BLU TEMPO SHRA SCT020 WHT
Loading
Personal Weather Stations






























Interactive Weather Map
Tropical Storm Tracking
New forecast layout! Learn more

10-Day Weather Forecast

Advertisements
Track Severe Weather on mobile